Time;durP1;ratioP1;P1;durP2;ratioP2;P2;SDS_P1;SDS_P2;PMS_P1;PMS_P2;Temp;Humidity;BMP_temperature;BMP_pressure;BME280_temperature;BME280_humidity;BME280_pressure;Samples;Min_cycle;Max_cycle;Signal;HPM_P1;HPM_P2
2022/12/01 00:00:46;;;;;;;34.17;30.50;;;;;;;;;;5100913;28;20199;-86
2022/12/01 00:03:14;;;;;;;36.10;32.13;;;;;;;;;;5100461;28;20807;-87
2022/12/01 00:05:41;;;;;;;34.97;30.80;;;;;;;;;;5101228;28;20868;-85
2022/12/01 00:08:08;;;;;;;35.90;30.77;;;;;;;;;;5100834;28;20935;-84
2022/12/01 00:10:34;;;;;;;38.77;34.60;;;;;;;;;;5100095;28;20452;-86
2022/12/01 00:13:02;;;;;;;34.72;31.20;;;;;;;;;;5099309;28;20780;-86
2022/12/01 00:15:30;;;;;;;32.90;29.57;;;;;;;;;;5100151;28;20697;-86
2022/12/01 00:17:59;;;;;;;33.60;30.30;;;;;;;;;;5101088;28;20427;-85
2022/12/01 00:20:26;;;;;;;33.93;30.40;;;;;;;;;;5100464;28;20958;-85
2022/12/01 00:22:53;;;;;;;34.30;30.70;;;;;;;;;;5101018;28;20675;-86
2022/12/01 00:25:20;;;;;;;32.90;29.30;;;;;;;;;;5099960;28;20225;-86
2022/12/01 00:27:49;;;;;;;34.22;30.65;;;;;;;;;;5100848;28;20209;-85
2022/12/01 00:30:16;;;;;;;34.03;30.53;;;;;;;;;;5100581;28;20213;-84
2022/12/01 00:32:44;;;;;;;40.65;31.45;;;;;;;;;;5101491;28;20481;-86
2022/12/01 00:35:12;;;;;;;32.23;29.40;;;;;;;;;;5100136;28;20233;-84
2022/12/01 00:37:40;;;;;;;32.93;29.63;;;;;;;;;;5100344;28;20922;-85
2022/12/01 00:40:08;;;;;;;32.77;29.67;;;;;;;;;;5100333;28;20453;-85
2022/12/01 00:42:35;;;;;;;31.20;28.20;;;;;;;;;;5101658;28;20423;-85
2022/12/01 00:45:02;;;;;;;33.50;30.00;;;;;;;;;;5099117;28;20433;-86
2022/12/01 00:47:30;;;;;;;32.27;29.17;;;;;;;;;;5101253;28;20213;-85
2022/12/01 00:49:57;;;;;;;33.08;29.58;;;;;;;;;;5100078;28;20425;-85
2022/12/01 00:52:25;;;;;;;33.30;29.90;;;;;;;;;;5100685;28;20533;-84
2022/12/01 00:54:52;;;;;;;33.50;30.20;;;;;;;;;;5099573;28;20512;-85
2022/12/01 00:57:20;;;;;;;31.98;28.77;;;;;;;;;;5099593;28;20501;-85
2022/12/01 00:59:47;;;;;;;31.80;28.83;;;;;;;;;;5103280;28;20198;-84
2022/12/01 01:02:14;;;;;;;33.13;29.70;;;;;;;;;;5097588;28;20456;-85
2022/12/01 01:04:41;;;;;;;35.22;31.75;;;;;;;;;;5097005;28;20215;-85
2022/12/01 01:07:08;;;;;;;35.70;29.37;;;;;;;;;;5097018;28;20229;-85
2022/12/01 01:09:36;;;;;;;34.50;30.30;;;;;;;;;;5097710;28;20430;-85
2022/12/01 01:12:03;;;;;;;33.95;30.80;;;;;;;;;;5098072;28;20446;-84
2022/12/01 01:14:30;;;;;;;34.50;31.30;;;;;;;;;;5098596;28;20279;-85
2022/12/01 01:16:58;;;;;;;31.50;28.60;;;;;;;;;;5098568;28;20845;-85
2022/12/01 01:19:25;;;;;;;32.90;29.83;;;;;;;;;;5097848;28;20459;-85
2022/12/01 01:21:52;;;;;;;32.60;29.52;;;;;;;;;;5098159;28;20210;-86
2022/12/01 01:24:19;;;;;;;33.15;29.42;;;;;;;;;;5097460;28;20204;-85
2022/12/01 01:26:47;;;;;;;31.03;27.93;;;;;;;;;;5097358;28;20229;-83
2022/12/01 01:29:14;;;;;;;32.30;29.38;;;;;;;;;;5098381;28;20447;-85
2022/12/01 01:31:41;;;;;;;33.15;29.65;;;;;;;;;;5098333;28;20576;-85
2022/12/01 01:34:08;;;;;;;34.75;30.95;;;;;;;;;;5097500;28;20695;-85
2022/12/01 01:36:35;;;;;;;32.83;29.60;;;;;;;;;;5097421;28;20271;-85
2022/12/01 01:39:03;;;;;;;41.77;33.17;;;;;;;;;;5097757;28;20236;-86
2022/12/01 01:41:30;;;;;;;34.10;30.70;;;;;;;;;;5098785;28;20440;-86
2022/12/01 01:44:00;;;;;;;34.40;30.90;;;;;;;;;;5097915;28;20455;-84
2022/12/01 01:46:28;;;;;;;36.27;32.33;;;;;;;;;;5097360;28;20490;-85
2022/12/01 01:48:58;;;;;;;37.00;32.10;;;;;;;;;;5097957;28;20844;-84
2022/12/01 01:51:31;;;;;;;35.37;31.50;;;;;;;;;;5098174;28;20205;-85
2022/12/01 01:54:00;;;;;;;39.90;33.17;;;;;;;;;;5098268;28;20943;-85
2022/12/01 01:56:28;;;;;;;37.45;33.47;;;;;;;;;;5098668;28;20462;-85
2022/12/01 01:58:55;;;;;;;32.15;28.80;;;;;;;;;;5098520;28;20210;-86
2022/12/01 02:01:24;;;;;;;35.55;31.25;;;;;;;;;;5097556;28;20214;-86
2022/12/01 02:03:53;;;;;;;36.70;33.07;;;;;;;;;;5097539;28;20650;-85
2022/12/01 02:06:20;;;;;;;36.23;32.00;;;;;;;;;;5097254;28;20490;-84
2022/12/01 02:08:47;;;;;;;34.92;31.20;;;;;;;;;;5099803;28;20458;-85
2022/12/01 02:11:32;;;;;;;39.90;33.07;;;;;;;;;;5102077;28;20212;-85
2022/12/01 02:14:03;;;;;;;36.10;32.47;;;;;;;;;;5101142;28;20492;-87
2022/12/01 02:16:38;;;;;;;40.83;34.03;;;;;;;;;;5102109;28;20505;-85
2022/12/01 02:19:10;;;;;;;45.90;33.23;;;;;;;;;;5102709;28;20192;-86
2022/12/01 02:21:43;;;;;;;43.70;31.95;;;;;;;;;;5102070;28;20451;-86
2022/12/01 02:24:19;;;;;;;37.80;32.45;;;;;;;;;;5102225;28;20685;-86
2022/12/01 02:26:49;;;;;;;35.33;31.63;;;;;;;;;;5101412;28;20225;-86
2022/12/01 02:29:34;;;;;;;42.67;35.08;;;;;;;;;;5102173;28;20440;-86
2022/12/01 02:32:08;;;;;;;40.33;32.58;;;;;;;;;;5101716;28;20193;-86
2022/12/01 02:34:39;;;;;;;40.07;33.50;;;;;;;;;;5102208;28;20205;-86
2022/12/01 02:37:09;;;;;;;39.80;33.37;;;;;;;;;;5100974;28;20477;-86
2022/12/01 02:39:39;;;;;;;37.65;32.90;;;;;;;;;;5101755;28;20434;-86
2022/12/01 02:42:10;;;;;;;42.33;35.37;;;;;;;;;;5101782;28;20228;-85
2022/12/01 02:44:39;;;;;;;42.42;34.45;;;;;;;;;;5102146;28;20440;-86
2022/12/01 02:47:10;;;;;;;40.60;33.47;;;;;;;;;;5101939;28;20218;-85
2022/12/01 02:49:41;;;;;;;41.10;34.43;;;;;;;;;;5102248;28;20768;-86
2022/12/01 02:52:08;;;;;;;36.65;32.65;;;;;;;;;;5102177;28;21057;-85
2022/12/01 02:54:36;;;;;;;42.30;35.50;;;;;;;;;;5100768;28;20202;-86
2022/12/01 02:57:04;;;;;;;43.10;34.10;;;;;;;;;;5101942;28;20480;-87
2022/12/01 02:59:31;;;;;;;44.40;32.87;;;;;;;;;;5102713;28;20208;-88
2022/12/01 03:02:04;;;;;;;44.00;33.47;;;;;;;;;;5101489;28;20447;-86
2022/12/01 03:04:39;;;;;;;43.92;34.63;;;;;;;;;;5104939;28;20440;-85
2022/12/01 03:07:11;;;;;;;41.00;33.20;;;;;;;;;;5104847;28;20248;-86
2022/12/01 03:09:41;;;;;;;42.50;34.13;;;;;;;;;;5104968;28;20823;-86
2022/12/01 03:12:14;;;;;;;39.23;32.50;;;;;;;;;;5104749;28;20422;-85
2022/12/01 03:14:44;;;;;;;48.17;35.10;;;;;;;;;;5105102;28;20486;-86
2022/12/01 03:17:14;;;;;;;42.57;31.67;;;;;;;;;;5105561;28;20502;-86
2022/12/01 03:19:44;;;;;;;45.57;36.73;;;;;;;;;;5107754;28;20471;-85
2022/12/01 03:22:13;;;;;;;51.37;35.73;;;;;;;;;;5103395;28;20443;-86
2022/12/01 03:24:41;;;;;;;40.33;33.87;;;;;;;;;;5103914;28;20422;-85
2022/12/01 03:27:09;;;;;;;43.97;33.67;;;;;;;;;;5105033;28;20468;-87
2022/12/01 03:29:40;;;;;;;42.63;35.00;;;;;;;;;;5104845;28;20448;-86
2022/12/01 03:32:10;;;;;;;42.13;34.50;;;;;;;;;;5105353;28;20617;-85
2022/12/01 03:34:39;;;;;;;40.80;34.67;;;;;;;;;;5103998;28;20794;-85
2022/12/01 03:37:11;;;;;;;49.67;36.00;;;;;;;;;;5105092;28;20465;-86
2022/12/01 03:39:39;;;;;;;44.60;34.47;;;;;;;;;;5104136;28;20441;-85
2022/12/01 03:42:08;;;;;;;44.63;36.13;;;;;;;;;;5103481;28;20448;-85
2022/12/01 03:44:36;;;;;;;43.00;34.35;;;;;;;;;;5102932;28;20928;-85
2022/12/01 03:47:05;;;;;;;44.57;34.27;;;;;;;;;;5103209;28;20277;-85
2022/12/01 03:49:32;;;;;;;47.03;36.30;;;;;;;;;;5103334;28;20941;-85
2022/12/01 03:52:04;;;;;;;46.20;36.47;;;;;;;;;;5104005;28;20201;-85
2022/12/01 03:54:37;;;;;;;40.73;34.37;;;;;;;;;;5104070;28;20201;-85
2022/12/01 03:57:06;;;;;;;46.90;34.60;;;;;;;;;;5103348;28;20494;-86
2022/12/01 03:59:34;;;;;;;46.35;34.55;;;;;;;;;;5103859;28;20218;-85
2022/12/01 04:02:02;;;;;;;42.95;34.30;;;;;;;;;;5103591;28;20205;-86
2022/12/01 04:04:29;;;;;;;42.17;36.33;;;;;;;;;;5103742;28;20208;-86
2022/12/01 04:06:56;;;;;;;47.47;37.25;;;;;;;;;;5103820;28;20222;-86
2022/12/01 04:09:23;;;;;;;47.88;35.88;;;;;;;;;;5104920;28;20217;-85
2022/12/01 04:14:35;;;;;;;50.17;37.00;;;;;;;;;;5096367;28;20212;-86
2022/12/01 04:17:03;;;;;;;47.95;35.00;;;;;;;;;;5107991;28;20494;-86
2022/12/01 04:19:30;;;;;;;51.03;38.10;;;;;;;;;;5107992;28;20236;-86
2022/12/01 04:21:57;;;;;;;44.70;35.65;;;;;;;;;;5106358;28;20207;-86
2022/12/01 04:24:24;;;;;;;42.28;34.22;;;;;;;;;;5103625;28;20213;-86
2022/12/01 04:26:53;;;;;;;42.25;34.70;;;;;;;;;;5104970;28;20221;-85
2022/12/01 04:29:20;;;;;;;41.00;34.17;;;;;;;;;;5104932;28;20213;-86
2022/12/01 04:31:47;;;;;;;43.83;35.97;;;;;;;;;;5104941;28;20231;-86
2022/12/01 04:34:15;;;;;;;47.28;35.85;;;;;;;;;;5103807;28;20216;-86
2022/12/01 04:36:42;;;;;;;41.28;36.20;;;;;;;;;;5103913;28;20226;-85
2022/12/01 04:39:09;;;;;;;37.93;33.80;;;;;;;;;;5104129;28;20210;-86
2022/12/01 04:41:37;;;;;;;40.03;35.83;;;;;;;;;;5103900;28;20466;-86
2022/12/01 04:44:06;;;;;;;41.25;36.42;;;;;;;;;;5103721;28;20262;-86
2022/12/01 04:46:33;;;;;;;41.30;34.90;;;;;;;;;;5104441;28;20220;-86
2022/12/01 04:49:01;;;;;;;43.38;36.38;;;;;;;;;;5102859;28;20214;-86
2022/12/01 04:51:28;;;;;;;46.08;37.33;;;;;;;;;;5102364;28;20661;-85
2022/12/01 04:53:55;;;;;;;47.63;37.88;;;;;;;;;;5102378;28;20220;-86
2022/12/01 04:56:22;;;;;;;49.80;37.50;;;;;;;;;;5102557;28;20226;-85
2022/12/01 04:58:49;;;;;;;54.47;39.63;;;;;;;;;;5103158;28;20939;-86
2022/12/01 05:01:18;;;;;;;52.40;38.88;;;;;;;;;;5102015;28;20838;-86
2022/12/01 05:03:48;;;;;;;59.38;41.92;;;;;;;;;;5102801;28;20193;-85
2022/12/01 05:06:16;;;;;;;60.15;43.25;;;;;;;;;;5103262;28;20233;-86
2022/12/01 05:08:44;;;;;;;60.70;41.53;;;;;;;;;;5103828;28;20585;-86
2022/12/01 05:11:11;;;;;;;62.27;44.10;;;;;;;;;;5102877;28;20272;-86
2022/12/01 05:13:39;;;;;;;58.03;42.95;;;;;;;;;;5102326;28;20449;-86
2022/12/01 05:16:09;;;;;;;70.03;47.40;;;;;;;;;;5103045;28;20232;-84
2022/12/01 05:18:38;;;;;;;67.05;45.05;;;;;;;;;;5103966;28;20216;-85
2022/12/01 05:21:04;;;;;;;78.30;48.20;;;;;;;;;;5103016;28;20206;-85
2022/12/01 05:23:34;;;;;;;75.22;45.20;;;;;;;;;;5102581;28;20205;-85
2022/12/01 05:26:01;;;;;;;66.43;46.05;;;;;;;;;;5101587;28;20224;-86
2022/12/01 05:28:28;;;;;;;70.57;47.40;;;;;;;;;;5102502;28;20197;-85
2022/12/01 05:30:56;;;;;;;74.97;49.65;;;;;;;;;;5103302;28;20426;-85
2022/12/01 05:33:23;;;;;;;76.90;51.43;;;;;;;;;;5102315;28;20200;-85
2022/12/01 05:35:52;;;;;;;70.28;47.17;;;;;;;;;;5102677;28;20770;-86
2022/12/01 05:38:20;;;;;;;76.32;49.70;;;;;;;;;;5103137;28;20223;-86
2022/12/01 05:40:50;;;;;;;72.55;47.65;;;;;;;;;;5101851;28;20205;-86
2022/12/01 05:43:17;;;;;;;74.47;47.97;;;;;;;;;;5101487;28;20200;-86
2022/12/01 05:45:44;;;;;;;68.00;47.25;;;;;;;;;;5100895;28;20640;-85
2022/12/01 05:48:11;;;;;;;73.82;49.83;;;;;;;;;;5101415;28;20560;-85
2022/12/01 05:50:39;;;;;;;70.93;47.80;;;;;;;;;;5101197;28;20235;-86
2022/12/01 05:53:07;;;;;;;80.85;47.38;;;;;;;;;;5101351;28;20227;-85
2022/12/01 05:55:34;;;;;;;75.43;49.78;;;;;;;;;;5101386;28;20213;-86
2022/12/01 05:58:02;;;;;;;75.50;47.83;;;;;;;;;;5102072;28;20220;-85
2022/12/01 06:00:29;;;;;;;65.82;46.42;;;;;;;;;;5103740;28;20205;-85
2022/12/01 06:02:56;;;;;;;67.20;48.20;;;;;;;;;;5100987;28;20198;-86
2022/12/01 06:05:23;;;;;;;77.03;50.03;;;;;;;;;;5102620;28;20221;-86
2022/12/01 06:07:50;;;;;;;77.22;52.78;;;;;;;;;;5102783;28;20208;-86
2022/12/01 06:10:19;;;;;;;72.10;47.47;;;;;;;;;;5102927;28;20205;-85
2022/12/01 06:12:46;;;;;;;67.95;47.67;;;;;;;;;;5102761;28;20657;-87
2022/12/01 06:15:14;;;;;;;71.32;49.85;;;;;;;;;;5098071;28;20217;-86
2022/12/01 06:17:41;;;;;;;74.10;50.38;;;;;;;;;;5101944;28;20275;-85
2022/12/01 06:20:09;;;;;;;72.95;48.28;;;;;;;;;;5103080;28;20657;-86
2022/12/01 06:22:36;;;;;;;72.07;49.42;;;;;;;;;;5101685;28;20235;-85
2022/12/01 06:25:03;;;;;;;80.47;53.20;;;;;;;;;;5101197;28;20205;-86
2022/12/01 06:27:31;;;;;;;72.87;49.40;;;;;;;;;;5100671;28;20223;-86
2022/12/01 06:29:58;;;;;;;82.72;55.00;;;;;;;;;;5102159;28;20458;-85
2022/12/01 06:32:26;;;;;;;69.72;49.88;;;;;;;;;;5101078;28;20212;-85
2022/12/01 06:34:53;;;;;;;78.03;52.22;;;;;;;;;;5101037;28;20210;-85
2022/12/01 06:37:20;;;;;;;78.20;49.95;;;;;;;;;;5103920;28;20231;-84
2022/12/01 06:39:47;;;;;;;73.53;51.78;;;;;;;;;;5104171;28;20205;-85
2022/12/01 06:42:14;;;;;;;69.90;49.72;;;;;;;;;;5104201;28;20206;-84
2022/12/01 06:44:42;;;;;;;74.63;50.23;;;;;;;;;;5103364;28;20209;-85
2022/12/01 06:47:09;;;;;;;73.63;48.20;;;;;;;;;;5105605;28;20466;-85
2022/12/01 06:49:37;;;;;;;74.13;53.50;;;;;;;;;;5103909;28;20700;-85
2022/12/01 06:52:04;;;;;;;77.88;51.92;;;;;;;;;;5103065;28;20208;-86
2022/12/01 06:54:32;;;;;;;67.47;50.40;;;;;;;;;;5102205;28;20210;-84
2022/12/01 06:56:59;;;;;;;73.35;50.45;;;;;;;;;;5102570;28;20230;-84
2022/12/01 06:59:26;;;;;;;73.90;51.70;;;;;;;;;;5103021;28;20347;-84
2022/12/01 07:01:56;;;;;;;71.67;51.50;;;;;;;;;;5102921;28;20451;-86
2022/12/01 07:04:23;;;;;;;68.72;50.38;;;;;;;;;;5102639;28;20983;-84
2022/12/01 07:06:52;;;;;;;68.30;49.50;;;;;;;;;;5101621;28;20232;-85
2022/12/01 07:09:20;;;;;;;65.10;50.42;;;;;;;;;;5102645;28;20198;-85
2022/12/01 07:11:47;;;;;;;95.03;63.92;;;;;;;;;;5102039;28;20204;-86
2022/12/01 07:14:17;;;;;;;76.35;52.97;;;;;;;;;;5102896;28;20212;-84
2022/12/01 07:16:44;;;;;;;72.45;50.80;;;;;;;;;;5102410;28;20221;-85
2022/12/01 07:19:24;;;;;;;74.13;51.80;;;;;;;;;;5101650;28;20221;-85
2022/12/01 07:21:51;;;;;;;73.05;52.00;;;;;;;;;;5101756;28;20299;-85
2022/12/01 07:24:18;;;;;;;69.97;51.25;;;;;;;;;;5101381;28;20280;-84
2022/12/01 07:26:46;;;;;;;68.80;49.72;;;;;;;;;;5102201;28;20229;-85
2022/12/01 07:29:14;;;;;;;66.15;48.88;;;;;;;;;;5101765;28;20192;-80
2022/12/01 07:31:41;;;;;;;75.32;51.50;;;;;;;;;;5101749;28;20210;-79
2022/12/01 07:34:10;;;;;;;75.55;51.35;;;;;;;;;;5100795;28;20588;-79
2022/12/01 07:36:39;;;;;;;73.20;52.45;;;;;;;;;;5100907;28;20235;-79
2022/12/01 07:39:06;;;;;;;75.45;52.45;;;;;;;;;;5100906;28;20241;-80
2022/12/01 07:41:34;;;;;;;91.25;64.35;;;;;;;;;;5101186;28;20671;-79
2022/12/01 07:44:01;;;;;;;76.35;52.55;;;;;;;;;;5099419;28;20228;-79
2022/12/01 07:46:28;;;;;;;47.13;37.40;;;;;;;;;;5101526;28;20561;-79
2022/12/01 07:48:56;;;;;;;67.27;49.63;;;;;;;;;;5100358;28;20297;-79
2022/12/01 07:51:23;;;;;;;76.75;50.85;;;;;;;;;;5100360;28;20454;-79
2022/12/01 07:53:52;;;;;;;71.03;51.17;;;;;;;;;;5099478;28;20217;-79
2022/12/01 07:56:20;;;;;;;61.45;46.85;;;;;;;;;;5100017;28;20457;-79
2022/12/01 07:58:47;;;;;;;69.50;51.05;;;;;;;;;;5100400;28;20227;-79
2022/12/01 08:01:15;;;;;;;74.45;51.28;;;;;;;;;;5099226;28;20201;-79
2022/12/01 08:03:42;;;;;;;70.75;49.53;;;;;;;;;;5099009;28;20228;-80
2022/12/01 08:06:09;;;;;;;72.40;50.72;;;;;;;;;;5098946;28;20226;-79
2022/12/01 08:08:37;;;;;;;71.97;51.70;;;;;;;;;;5098877;28;20213;-79
2022/12/01 08:11:07;;;;;;;71.68;49.60;;;;;;;;;;5099231;28;20530;-79
2022/12/01 08:13:34;;;;;;;75.32;48.75;;;;;;;;;;5098031;28;20698;-79
2022/12/01 08:16:03;;;;;;;75.35;51.83;;;;;;;;;;5097810;28;20607;-79
2022/12/01 08:18:30;;;;;;;71.80;49.58;;;;;;;;;;5098155;28;20217;-79
2022/12/01 08:20:58;;;;;;;60.60;48.42;;;;;;;;;;5098333;28;20287;-79
2022/12/01 08:23:25;;;;;;;69.65;49.88;;;;;;;;;;5098120;28;20208;-79
2022/12/01 08:25:52;;;;;;;64.65;47.10;;;;;;;;;;5098553;28;20816;-79
2022/12/01 08:28:21;;;;;;;64.38;47.78;;;;;;;;;;5099490;28;20206;-79
2022/12/01 08:30:48;;;;;;;67.95;47.40;;;;;;;;;;5097778;28;20287;-79
2022/12/01 08:33:16;;;;;;;62.08;47.92;;;;;;;;;;5097007;28;20224;-80
2022/12/01 08:35:43;;;;;;;59.33;47.20;;;;;;;;;;5096999;28;20230;-78
2022/12/01 08:38:11;;;;;;;72.97;49.10;;;;;;;;;;5097826;28;20215;-79
2022/12/01 08:40:38;;;;;;;68.50;50.00;;;;;;;;;;5098594;28;20616;-79
2022/12/01 08:43:05;;;;;;;69.10;48.65;;;;;;;;;;5097185;28;20210;-80
2022/12/01 08:45:33;;;;;;;64.55;51.17;;;;;;;;;;5097623;28;20236;-83
2022/12/01 08:48:00;;;;;;;73.03;53.70;;;;;;;;;;5098509;28;20206;-79
2022/12/01 08:50:28;;;;;;;66.32;45.90;;;;;;;;;;5098285;28;20426;-79
2022/12/01 08:52:55;;;;;;;62.70;48.10;;;;;;;;;;5097881;28;20204;-79
2022/12/01 08:55:22;;;;;;;61.63;46.60;;;;;;;;;;5098826;28;20464;-80
2022/12/01 08:57:49;;;;;;;68.57;49.35;;;;;;;;;;5097894;28;20221;-79
2022/12/01 09:00:17;;;;;;;68.97;50.75;;;;;;;;;;5097767;28;20209;-79
2022/12/01 09:02:45;;;;;;;63.80;47.70;;;;;;;;;;5099643;28;20205;-79
2022/12/01 09:05:12;;;;;;;73.53;50.50;;;;;;;;;;5098707;28;20234;-79
2022/12/01 09:07:40;;;;;;;60.15;46.35;;;;;;;;;;5098453;28;20575;-80
2022/12/01 09:10:07;;;;;;;71.68;52.17;;;;;;;;;;5099484;28;20221;-79
2022/12/01 09:12:35;;;;;;;64.22;50.15;;;;;;;;;;5095851;28;20205;-79
2022/12/01 09:15:02;;;;;;;64.07;47.60;;;;;;;;;;5094646;28;20209;-80
2022/12/01 09:17:29;;;;;;;66.97;48.65;;;;;;;;;;5095252;28;20205;-80
2022/12/01 09:19:57;;;;;;;62.10;50.17;;;;;;;;;;5095829;28;20557;-79
2022/12/01 09:22:24;;;;;;;59.50;47.23;;;;;;;;;;5100389;28;20457;-79
2022/12/01 09:24:51;;;;;;;65.53;47.70;;;;;;;;;;5099684;28;20817;-79
2022/12/01 09:27:18;;;;;;;70.10;50.13;;;;;;;;;;5101900;28;20561;-79
2022/12/01 09:29:45;;;;;;;59.27;45.10;;;;;;;;;;5101353;28;20417;-79
2022/12/01 09:32:12;;;;;;;57.35;45.85;;;;;;;;;;5096980;28;21029;-80
2022/12/01 09:34:39;;;;;;;62.25;48.70;;;;;;;;;;5097641;28;20207;-80
2022/12/01 09:37:08;;;;;;;63.47;47.90;;;;;;;;;;5096284;28;20240;-79
2022/12/01 09:39:35;;;;;;;59.20;48.50;;;;;;;;;;5100913;28;20462;-79
2022/12/01 09:42:03;;;;;;;61.80;47.28;;;;;;;;;;5101076;28;20427;-79
2022/12/01 09:44:33;;;;;;;61.93;48.30;;;;;;;;;;5098587;28;20285;-79
2022/12/01 09:47:03;;;;;;;61.85;48.13;;;;;;;;;;5101675;28;20467;-80
2022/12/01 09:49:40;;;;;;;61.73;46.40;;;;;;;;;;5099056;28;20200;-78
2022/12/01 09:52:11;;;;;;;56.55;43.33;;;;;;;;;;5093595;28;20952;-87
2022/12/01 09:54:38;;;;;;;66.38;49.10;;;;;;;;;;5098352;28;20192;-87
2022/12/01 09:57:05;;;;;;;63.33;48.93;;;;;;;;;;5097877;28;20225;-82
2022/12/01 09:59:36;;;;;;;55.97;46.30;;;;;;;;;;5095941;28;20509;-77
2022/12/01 10:02:07;;;;;;;65.37;46.40;;;;;;;;;;5095075;28;20438;-80
2022/12/01 10:04:35;;;;;;;64.03;48.78;;;;;;;;;;5099661;28;20410;-79
2022/12/01 10:07:03;;;;;;;64.50;49.13;;;;;;;;;;5099483;28;20225;-80
2022/12/01 10:09:35;;;;;;;67.80;48.83;;;;;;;;;;5100911;28;20213;-79
2022/12/01 10:12:07;;;;;;;63.03;44.90;;;;;;;;;;5102287;28;20193;-79
2022/12/01 10:14:36;;;;;;;67.25;49.10;;;;;;;;;;5104323;28;20418;-79
2022/12/01 10:17:16;;;;;;;65.83;46.63;;;;;;;;;;5101499;28;20767;-83
2022/12/01 10:19:48;;;;;;;60.47;47.30;;;;;;;;;;5101123;28;20470;-80
2022/12/01 10:22:20;;;;;;;64.03;48.90;;;;;;;;;;5102478;28;20301;-83
2022/12/01 10:24:53;;;;;;;63.70;50.40;;;;;;;;;;5102709;28;20432;-81
2022/12/01 10:27:26;;;;;;;69.97;51.13;;;;;;;;;;5103307;28;20460;-81
2022/12/01 10:29:58;;;;;;;61.33;47.53;;;;;;;;;;5103306;28;20781;-81
2022/12/01 10:32:29;;;;;;;64.53;46.47;;;;;;;;;;5102041;28;20182;-80
2022/12/01 10:34:56;;;;;;;53.38;44.08;;;;;;;;;;5101425;28;20198;-80
2022/12/01 10:37:24;;;;;;;65.95;46.15;;;;;;;;;;5101562;28;20209;-80
2022/12/01 10:39:53;;;;;;;56.00;41.92;;;;;;;;;;5101671;28;20615;-79
2022/12/01 10:42:27;;;;;;;54.70;44.30;;;;;;;;;;5101730;28;20934;-80
2022/12/01 10:44:55;;;;;;;71.78;43.63;;;;;;;;;;5101305;28;20212;-79
2022/12/01 10:47:24;;;;;;;52.53;42.70;;;;;;;;;;5103609;28;20210;-80
2022/12/01 10:49:52;;;;;;;48.25;41.35;;;;;;;;;;5102417;28;20471;-80
2022/12/01 10:52:33;;;;;;;50.42;41.33;;;;;;;;;;5102502;28;20708;-80
2022/12/01 10:55:02;;;;;;;48.60;40.15;;;;;;;;;;5101929;28;20208;-80
2022/12/01 10:57:30;;;;;;;57.00;44.45;;;;;;;;;;5101568;28;20663;-79
2022/12/01 10:59:59;;;;;;;50.65;41.50;;;;;;;;;;5101391;28;20595;-79
2022/12/01 11:02:27;;;;;;;50.70;43.15;;;;;;;;;;5103117;28;20206;-80
2022/12/01 11:04:55;;;;;;;54.67;43.95;;;;;;;;;;5100902;28;20213;-80
2022/12/01 11:07:23;;;;;;;50.50;42.73;;;;;;;;;;5102068;28;20210;-80
2022/12/01 11:09:58;;;;;;;57.15;43.55;;;;;;;;;;5102584;28;20470;-80
2022/12/01 11:12:26;;;;;;;58.33;42.93;;;;;;;;;;5102586;28;20205;-80
2022/12/01 11:14:56;;;;;;;66.75;48.88;;;;;;;;;;5102023;28;20450;-80
2022/12/01 11:17:29;;;;;;;53.05;44.67;;;;;;;;;;5096558;28;20206;-79
2022/12/01 11:19:56;;;;;;;54.70;44.57;;;;;;;;;;5099136;28;20232;-79
2022/12/01 11:22:25;;;;;;;55.53;42.83;;;;;;;;;;5099342;28;20476;-80
2022/12/01 11:24:59;;;;;;;61.50;47.30;;;;;;;;;;5097830;28;20472;-81
2022/12/01 11:27:30;;;;;;;53.40;44.22;;;;;;;;;;5099714;28;20454;-80
2022/12/01 11:29:58;;;;;;;53.07;41.90;;;;;;;;;;5099478;28;20192;-78
2022/12/01 11:32:26;;;;;;;52.33;42.55;;;;;;;;;;5113785;28;20508;-79
2022/12/01 11:34:55;;;;;;;58.27;42.63;;;;;;;;;;5108025;28;20214;-81
2022/12/01 11:37:23;;;;;;;63.75;44.83;;;;;;;;;;5096513;28;20432;-81
2022/12/01 11:39:51;;;;;;;50.87;40.37;;;;;;;;;;5096014;28;20226;-81
2022/12/01 11:42:21;;;;;;;54.75;44.33;;;;;;;;;;5095610;28;20467;-78
2022/12/01 11:44:51;;;;;;;53.85;41.95;;;;;;;;;;5095142;28;20216;-77
2022/12/01 11:47:19;;;;;;;55.15;43.47;;;;;;;;;;5095756;28;20201;-80
2022/12/01 11:49:51;;;;;;;56.63;43.63;;;;;;;;;;5095913;28;20228;-78
2022/12/01 11:52:23;;;;;;;60.97;45.65;;;;;;;;;;5094738;28;20582;-81
2022/12/01 11:54:57;;;;;;;51.78;41.40;;;;;;;;;;5095725;28;20700;-82
2022/12/01 11:57:25;;;;;;;60.05;45.53;;;;;;;;;;5099436;28;20206;-82
2022/12/01 11:59:54;;;;;;;53.50;44.67;;;;;;;;;;5101802;28;20229;-78
2022/12/01 12:02:27;;;;;;;48.47;38.95;;;;;;;;;;5100342;28;20695;-79
2022/12/01 12:05:12;;;;;;;43.47;37.08;;;;;;;;;;5100369;28;20625;-80
2022/12/01 12:07:43;;;;;;;49.90;43.10;;;;;;;;;;5091335;28;20209;-80
2022/12/01 12:10:20;;;;;;;45.07;40.37;;;;;;;;;;5101363;28;20201;-79
2022/12/01 12:12:55;;;;;;;44.67;38.97;;;;;;;;;;5100259;28;20498;-80
2022/12/01 12:15:28;;;;;;;43.05;38.15;;;;;;;;;;5101050;28;20229;-80
2022/12/01 12:18:01;;;;;;;45.78;36.90;;;;;;;;;;5099879;28;20195;-80
2022/12/01 12:20:36;;;;;;;39.60;35.33;;;;;;;;;;5103022;28;20228;-80
2022/12/01 12:23:17;;;;;;;70.80;47.50;;;;;;;;;;5097716;28;20435;-80
2022/12/01 12:25:51;;;;;;;67.10;48.17;;;;;;;;;;5101096;28;20450;-80
2022/12/01 12:28:25;;;;;;;56.03;44.25;;;;;;;;;;5099251;28;20239;-84
2022/12/01 12:30:58;;;;;;;46.40;40.67;;;;;;;;;;5100876;28;20200;-80
2022/12/01 12:33:33;;;;;;;53.00;42.63;;;;;;;;;;5099170;28;20412;-78
2022/12/01 12:36:05;;;;;;;50.57;41.30;;;;;;;;;;5097158;28;20472;-81
2022/12/01 12:38:41;;;;;;;53.13;44.63;;;;;;;;;;5097751;28;20454;-80
2022/12/01 12:41:13;;;;;;;56.33;44.78;;;;;;;;;;5097132;28;20193;-85
2022/12/01 12:43:44;;;;;;;47.63;40.88;;;;;;;;;;5095057;28;20216;-80
2022/12/01 12:46:13;;;;;;;53.58;44.90;;;;;;;;;;5099071;28;20230;-79
2022/12/01 12:48:58;;;;;;;52.17;43.50;;;;;;;;;;5098618;28;20664;-79
2022/12/01 12:51:30;;;;;;;52.42;42.53;;;;;;;;;;5097950;28;20431;-79
2022/12/01 12:53:59;;;;;;;53.47;43.63;;;;;;;;;;5096984;28;20195;-79
2022/12/01 12:56:28;;;;;;;49.67;42.07;;;;;;;;;;5096847;28;20256;-79
2022/12/01 12:58:57;;;;;;;46.47;40.70;;;;;;;;;;5098881;28;20458;-79
2022/12/01 13:01:27;;;;;;;54.08;41.53;;;;;;;;;;5103544;28;20433;-78
2022/12/01 13:03:58;;;;;;;47.25;38.40;;;;;;;;;;5101245;28;20208;-79
2022/12/01 13:06:27;;;;;;;54.90;43.55;;;;;;;;;;5100750;28;20218;-79
2022/12/01 13:08:55;;;;;;;53.10;40.20;;;;;;;;;;5099871;28;20209;-79
2022/12/01 13:11:24;;;;;;;51.30;40.83;;;;;;;;;;5102875;28;20204;-78
2022/12/01 13:13:56;;;;;;;49.50;40.95;;;;;;;;;;5101179;28;20451;-79
2022/12/01 13:16:26;;;;;;;59.53;42.63;;;;;;;;;;5099054;28;20679;-79
2022/12/01 13:19:01;;;;;;;50.67;40.58;;;;;;;;;;5099272;28;20285;-79
2022/12/01 13:21:30;;;;;;;48.07;39.13;;;;;;;;;;5101182;28;20207;-78
2022/12/01 13:23:58;;;;;;;50.80;39.50;;;;;;;;;;5102204;28;20454;-78
2022/12/01 13:26:25;;;;;;;50.83;40.42;;;;;;;;;;5101603;28;20476;-79
2022/12/01 13:28:53;;;;;;;52.80;41.30;;;;;;;;;;5098114;28;20212;-79
2022/12/01 13:31:21;;;;;;;55.45;42.65;;;;;;;;;;5099049;28;20193;-79
2022/12/01 13:33:56;;;;;;;48.60;41.30;;;;;;;;;;5096871;28;20255;-79
2022/12/01 13:36:24;;;;;;;59.72;42.60;;;;;;;;;;5097894;28;20239;-79
2022/12/01 13:38:57;;;;;;;55.03;41.60;;;;;;;;;;5098219;28;20205;-79
2022/12/01 13:41:27;;;;;;;54.10;42.80;;;;;;;;;;5095981;28;20599;-78
2022/12/01 13:43:56;;;;;;;57.13;42.15;;;;;;;;;;5096231;28;20525;-79
2022/12/01 13:46:25;;;;;;;54.90;41.88;;;;;;;;;;5095891;28;20228;-79
2022/12/01 13:48:53;;;;;;;51.63;41.33;;;;;;;;;;5096279;28;20206;-78
2022/12/01 13:51:21;;;;;;;55.13;41.88;;;;;;;;;;5095710;28;20217;-80
2022/12/01 13:54:02;;;;;;;59.90;45.00;;;;;;;;;;5096468;28;20675;-77
2022/12/01 13:56:45;;;;;;;56.67;41.80;;;;;;;;;;5095576;28;20563;-77
2022/12/01 13:59:30;;;;;;;57.75;42.72;;;;;;;;;;5095698;28;20220;-82
2022/12/01 14:02:07;;;;;;;55.20;41.00;;;;;;;;;;5067904;28;20215;-80
2022/12/01 14:04:36;;;;;;;54.20;41.10;;;;;;;;;;5097757;28;20688;-79
2022/12/01 14:07:30;;;;;;;48.47;39.13;;;;;;;;;;5099207;28;20224;-80
2022/12/01 14:10:07;;;;;;;58.08;41.50;;;;;;;;;;5098853;28;20200;-80
2022/12/01 14:12:36;;;;;;;57.90;42.45;;;;;;;;;;5096581;28;20205;-79
2022/12/01 14:15:05;;;;;;;57.22;43.67;;;;;;;;;;5096771;28;20788;-80
2022/12/01 14:17:33;;;;;;;56.70;42.70;;;;;;;;;;5098451;28;20207;-80
2022/12/01 14:20:07;;;;;;;58.45;44.15;;;;;;;;;;5098132;28;20499;-80
2022/12/01 14:22:35;;;;;;;58.08;43.60;;;;;;;;;;5098615;28;20201;-80
2022/12/01 14:25:06;;;;;;;57.47;43.20;;;;;;;;;;5098469;28;20210;-80
2022/12/01 14:27:34;;;;;;;60.35;41.20;;;;;;;;;;5098817;28;20436;-80
2022/12/01 14:30:16;;;;;;;55.80;42.55;;;;;;;;;;5099727;28;20202;-80